Time;durP1;ratioP1;P1;durP2;ratioP2;P2;SDS_P1;SDS_P2;PMS_P1;PMS_P2;Temp;Humidity;BMP_temperature;BMP_pressure;BME280_temperature;BME280_humidity;BME280_pressure;Samples;Min_cycle;Max_cycle;Signal;HPM_P1;HPM_P2
2021/06/21 00:00:29;;;;;;;0.60;0.25;;;;;;;22.46;53.96;100099.84;1662119;84;21043;-89
2021/06/21 00:02:57;;;;;;;1.45;0.20;;;;;;;22.45;53.96;100097.69;1661152;84;21033;-89
2021/06/21 00:05:24;;;;;;;1.90;0.20;;;;;;;22.44;53.97;100091.16;1659226;84;21058;-89
2021/06/21 00:07:50;;;;;;;1.67;0.20;;;;;;;22.40;54.10;100082.74;1662879;83;21054;-89
2021/06/21 00:10:18;;;;;;;2.30;0.30;;;;;;;22.39;54.13;100088.44;1670528;83;21183;-90
2021/06/21 00:12:46;;;;;;;4.97;0.20;;;;;;;22.38;54.13;100089.00;1630673;86;21616;-91
2021/06/21 00:15:18;;;;;;;4.70;0.20;;;;;;;22.36;54.15;100095.25;1629544;86;21023;-90
2021/06/21 00:17:48;;;;;;;3.02;0.20;;;;;;;22.35;54.24;100094.95;1638219;85;21083;-89
2021/06/21 00:20:22;;;;;;;1.30;0.30;;;;;;;22.33;54.30;100088.44;1635157;85;21146;-91
2021/06/21 00:22:56;;;;;;;3.45;0.30;;;;;;;22.31;54.40;100091.97;1633017;84;21112;-94
2021/06/21 00:25:24;;;;;;;3.60;0.20;;;;;;;22.27;54.61;100088.73;1644757;81;21132;-91
2021/06/21 00:27:51;;;;;;;3.40;0.20;;;;;;;22.23;54.71;100090.34;1625343;86;21593;-92
2021/06/21 00:30:19;;;;;;;5.78;0.20;;;;;;;22.21;54.62;100087.89;1657779;82;21069;-93
2021/06/21 00:32:49;;;;;;;1.80;0.30;;;;;;;22.20;54.66;100086.24;1651057;81;20996;-92
2021/06/21 00:35:16;;;;;;;0.72;0.20;;;;;;;22.20;54.63;100091.67;1656434;83;21015;-92
2021/06/21 00:40:40;;;;;;;4.35;0.15;;;;;;;22.18;54.68;100092.49;1630416;84;21038;-92
2021/06/21 00:43:09;;;;;;;2.05;0.20;;;;;;;22.17;54.74;100096.30;1593784;85;21106;-92
2021/06/21 00:45:40;;;;;;;0.90;0.23;;;;;;;22.14;54.85;100098.20;1586446;86;21073;-93
2021/06/21 00:48:07;;;;;;;3.33;0.25;;;;;;;22.11;54.74;100096.84;1608409;86;20974;-88
2021/06/21 00:50:34;;;;;;;1.50;0.10;;;;;;;22.10;54.70;100099.28;1609217;87;21112;-90
2021/06/21 00:53:03;;;;;;;3.40;0.20;;;;;;;22.09;54.83;100098.98;1587471;87;21152;-88
2021/06/21 00:55:32;;;;;;;2.27;0.37;;;;;;;22.09;54.81;100101.70;1603987;87;21396;-88
2021/06/21 00:57:58;;;;;;;1.32;0.10;;;;;;;22.07;54.78;100091.66;1624018;86;21053;-94
2021/06/21 01:00:27;;;;;;;4.97;0.20;;;;;;;22.06;54.89;100083.27;1605069;86;21041;-92
2021/06/21 01:02:57;;;;;;;3.60;0.15;;;;;;;22.04;54.74;100080.53;1630107;85;21125;-93
2021/06/21 01:05:29;;;;;;;2.42;0.10;;;;;;;22.03;54.81;100077.02;1629682;86;21057;-88
2021/06/21 01:07:55;;;;;;;0.90;0.17;;;;;;;22.02;54.87;100082.19;1635247;85;21136;-89
2021/06/21 01:10:27;;;;;;;4.50;0.10;;;;;;;22.01;54.77;100081.09;1636862;85;21143;-89
2021/06/21 01:13:26;;;;;;;1.27;0.20;;;;;;;21.99;54.82;100087.34;1642165;84;21095;-90
2021/06/21 01:16:02;;;;;;;1.65;0.20;;;;;;;21.99;54.70;100064.27;1658877;84;21039;-89
2021/06/21 01:18:33;;;;;;;1.70;0.10;;;;;;;21.95;54.90;100070.78;1648540;84;21067;-88
2021/06/21 01:21:14;;;;;;;2.55;0.20;;;;;;;21.91;54.88;100070.50;1644370;84;21054;-89
2021/06/21 01:24:02;;;;;;;3.12;0.30;;;;;;;21.90;54.96;100078.91;1628639;82;21074;-91
2021/06/21 01:26:47;;;;;;;0.85;0.10;;;;;;;21.86;55.12;100077.82;1605368;85;21108;-91
2021/06/21 01:29:52;;;;;;;4.67;0.20;;;;;;;21.80;55.24;100077.00;1617333;83;21083;-91
2021/06/21 01:32:40;;;;;;;0.80;0.20;;;;;;;21.74;55.32;100064.52;1624870;86;21032;-91
2021/06/21 01:35:13;;;;;;;6.12;0.55;;;;;;;21.70;55.42;100062.05;1611210;86;21198;-92
2021/06/21 01:37:41;;;;;;;6.22;0.10;;;;;;;21.67;55.53;100069.39;1642208;85;21089;-93
2021/06/21 01:40:10;;;;;;;1.07;0.30;;;;;;;21.63;55.50;100070.46;1561643;89;21126;-91
2021/06/21 01:42:43;;;;;;;1.50;0.30;;;;;;;21.63;55.52;100066.94;1612688;86;21053;-91
2021/06/21 01:45:12;;;;;;;2.75;0.20;;;;;;;21.60;55.57;100068.83;1602199;87;21154;-93
2021/06/21 01:47:42;;;;;;;0.90;0.20;;;;;;;21.57;55.48;100069.64;1626886;83;21099;-92
2021/06/21 01:50:11;;;;;;;2.80;0.23;;;;;;;21.57;55.45;100065.56;1665712;83;21048;-94
2021/06/21 01:52:42;;;;;;;3.25;0.20;;;;;;;21.57;55.49;100062.05;1661964;85;21081;-93
2021/06/21 01:55:13;;;;;;;1.65;0.10;;;;;;;21.55;55.48;100062.31;1647614;84;21152;-95
2021/06/21 01:57:40;;;;;;;1.60;0.10;;;;;;;21.53;55.50;100069.06;1643678;85;21161;-94
2021/06/21 02:00:09;;;;;;;7.12;0.20;;;;;;;21.53;55.51;100066.36;1629023;85;21163;-94
2021/06/21 02:02:42;;;;;;;0.60;0.20;;;;;;;21.51;55.64;100057.67;1653904;85;21552;-94
2021/06/21 02:05:14;;;;;;;1.47;0.28;;;;;;;21.48;55.60;100063.11;1604229;86;21149;-93
2021/06/21 02:07:43;;;;;;;2.90;0.10;;;;;;;21.47;55.63;100050.62;1627426;85;22253;-93
2021/06/21 02:10:13;;;;;;;1.60;0.10;;;;;;;21.48;55.65;100049.55;1607598;86;21103;-94
2021/06/21 02:12:42;;;;;;;1.35;0.25;;;;;;;21.47;55.59;100054.69;1631852;85;21078;-88
2021/06/21 02:15:09;;;;;;;6.10;0.47;;;;;;;21.49;55.53;100059.33;1602871;87;21046;-90
2021/06/21 02:17:38;;;;;;;1.65;0.20;;;;;;;21.51;55.47;100061.23;1615344;87;21557;-91
2021/06/21 02:20:07;;;;;;;2.60;0.20;;;;;;;21.56;55.34;100057.70;1606991;86;21031;-91
2021/06/21 02:22:36;;;;;;;1.00;0.35;;;;;;;21.65;55.23;100055.28;1611925;86;20999;-92
2021/06/21 02:25:06;;;;;;;4.42;0.30;;;;;;;21.80;54.89;100052.59;1610430;86;21593;-90
2021/06/21 02:27:39;;;;;;;0.88;0.20;;;;;;;21.97;54.54;100060.47;1621650;86;21318;-91
2021/06/21 02:30:12;;;;;;;1.85;0.25;;;;;;;22.16;54.14;100063.45;1617676;86;21112;-90
2021/06/21 02:32:45;;;;;;;2.05;0.10;;;;;;;22.37;53.53;100064.27;1623667;85;21054;-90
2021/06/21 02:35:14;;;;;;;1.90;0.17;;;;;;;22.60;53.09;100062.87;1646763;85;21152;-89
2021/06/21 02:37:41;;;;;;;0.75;0.20;;;;;;;22.84;52.48;100055.48;1651144;83;21050;-90
2021/06/21 02:40:13;;;;;;;1.57;0.10;;;;;;;23.08;51.77;100062.50;1652904;85;21039;-91
2021/06/21 02:42:42;;;;;;;0.98;0.40;;;;;;;23.31;51.23;100059.11;1649845;84;21075;-89
2021/06/21 02:45:11;;;;;;;2.15;0.30;;;;;;;23.55;50.80;100057.64;1658524;80;21308;-90
2021/06/21 02:47:40;;;;;;;0.30;0.10;;;;;;;23.81;49.93;100061.84;1655216;80;21033;-93
2021/06/21 02:50:09;;;;;;;2.70;0.10;;;;;;;24.04;49.43;100056.21;1648614;83;21024;-91
2021/06/21 02:53:28;;;;;;;0.90;0.20;;;;;;;24.25;48.86;100055.48;1658853;84;21500;-91
2021/06/21 02:56:17;;;;;;;1.05;0.15;;;;;;;24.47;48.34;100054.20;1611476;86;21084;-90
2021/06/21 02:58:49;;;;;;;3.08;0.10;;;;;;;24.75;47.63;100058.02;1624682;86;21102;-88
2021/06/21 03:01:18;;;;;;;2.22;0.10;;;;;;;25.03;47.17;100056.33;1642133;85;21062;-91
2021/06/21 03:03:50;;;;;;;1.80;0.10;;;;;;;25.35;46.46;100041.74;1624942;86;21042;-92
2021/06/21 03:06:18;;;;;;;8.40;0.30;;;;;;;25.63;45.72;100047.59;1621263;85;21147;-95
2021/06/21 03:08:49;;;;;;;3.47;0.20;;;;;;;25.90;45.39;100040.66;1637382;85;21059;-92
2021/06/21 03:11:19;;;;;;;2.10;0.10;;;;;;;26.21;44.38;100047.78;1629101;84;21060;-93
2021/06/21 03:13:53;;;;;;;0.55;0.15;;;;;;;26.46;43.63;100045.70;1616822;86;21064;-92
2021/06/21 03:16:21;;;;;;;0.57;0.10;;;;;;;26.63;43.34;100045.14;1605551;86;21094;-89
2021/06/21 03:18:50;;;;;;;2.35;0.30;;;;;;;26.82;42.96;100049.14;1636051;86;21062;-88
2021/06/21 03:21:20;;;;;;;4.47;0.10;;;;;;;27.07;42.58;100047.83;1647661;86;21090;-90
2021/06/21 03:23:51;;;;;;;3.25;0.20;;;;;;;27.30;41.95;100043.81;1648761;84;21036;-89
2021/06/21 03:26:17;;;;;;;1.22;0.30;;;;;;;27.49;41.62;100044.47;1637488;86;21071;-90
2021/06/21 03:28:44;;;;;;;1.35;0.17;;;;;;;27.67;41.03;100042.69;1620736;86;20979;-91
2021/06/21 03:31:11;;;;;;;1.95;0.20;;;;;;;27.67;40.66;100015.31;1639918;84;21187;-90
2021/06/21 03:33:38;;;;;;;8.20;0.47;;;;;;;27.87;40.33;100046.85;1648897;84;21105;-91
2021/06/21 03:36:07;;;;;;;3.05;0.10;;;;;;;27.99;40.29;100049.08;1666889;84;21020;-91
2021/06/21 03:38:42;;;;;;;1.57;0.20;;;;;;;28.26;39.83;100048.09;1660099;81;21040;-93
2021/06/21 03:41:10;;;;;;;0.95;0.10;;;;;;;28.57;39.05;100051.98;1652828;81;21056;-95
2021/06/21 03:43:37;;;;;;;3.15;0.20;;;;;;;28.63;38.60;100052.08;1653357;83;21021;-93
2021/06/21 03:46:06;;;;;;;2.00;0.30;;;;;;;28.50;39.29;100061.45;1658064;84;21099;-92
2021/06/21 03:48:36;;;;;;;2.02;0.10;;;;;;;28.43;39.17;100070.68;1665029;84;21100;-92
2021/06/21 03:51:04;;;;;;;4.55;0.20;;;;;;;28.38;39.34;100063.95;1649087;85;21130;-92
2021/06/21 03:53:33;;;;;;;2.98;0.10;;;;;;;28.38;39.53;100057.67;1624773;86;21079;-93
2021/06/21 03:56:06;;;;;;;3.72;0.10;;;;;;;28.38;39.02;100063.16;1606968;86;21750;-92
2021/06/21 03:58:32;;;;;;;2.77;0.13;;;;;;;28.38;39.27;100058.47;1620903;86;21051;-93
2021/06/21 04:00:58;;;;;;;1.70;0.17;;;;;;;28.41;38.91;100055.69;1583222;88;21194;-87
2021/06/21 04:03:35;;;;;;;2.17;0.20;;;;;;;28.40;38.88;100058.16;1569683;90;21059;-96
2021/06/21 04:06:41;;;;;;;4.28;0.40;;;;;;;28.35;38.90;100035.83;1585481;88;21064;-94
2021/06/21 04:09:42;;;;;;;1.75;0.10;;;;;;;28.40;38.99;100051.31;1616222;87;21095;-95
2021/06/21 04:12:25;;;;;;;1.27;0.20;;;;;;;28.43;38.90;100046.01;1624434;86;21082;-93
2021/06/21 04:14:57;;;;;;;3.12;0.20;;;;;;;28.61;38.44;100045.53;1608579;87;21163;-89
2021/06/21 04:17:24;;;;;;;1.57;0.20;;;;;;;28.91;38.08;100045.27;1615234;86;21078;-89
2021/06/21 04:19:52;;;;;;;2.72;0.10;;;;;;;29.19;37.16;100046.38;1619604;86;21058;-89
2021/06/21 04:22:19;;;;;;;1.87;0.20;;;;;;;29.28;37.27;100051.32;1625816;86;21125;-88
2021/06/21 04:24:46;;;;;;;3.15;0.10;;;;;;;29.18;37.44;100046.16;1631558;85;21085;-91
2021/06/21 04:27:13;;;;;;;3.17;0.10;;;;;;;29.24;37.24;100053.09;1632978;86;21023;-91
2021/06/21 04:29:40;;;;;;;5.97;0.40;;;;;;;29.26;36.79;100048.09;1623472;85;21183;-92
2021/06/21 04:32:09;;;;;;;0.45;0.13;;;;;;;29.33;36.63;100053.66;1627723;86;21090;-89
2021/06/21 04:34:36;;;;;;;1.75;0.10;;;;;;;29.35;36.60;100046.73;1640412;85;21704;-87
2021/06/21 04:37:04;;;;;;;4.78;0.10;;;;;;;29.12;37.31;100050.95;1635301;85;21018;-86
2021/06/21 04:39:32;;;;;;;4.83;0.10;;;;;;;28.95;37.58;100060.49;1636609;85;21078;-86
2021/06/21 04:41:58;;;;;;;1.40;0.20;;;;;;;28.85;37.83;100047.08;1634081;85;21078;-88
2021/06/21 04:44:26;;;;;;;2.25;0.10;;;;;;;28.81;37.61;100042.00;1650440;84;21005;-89
2021/06/21 04:46:55;;;;;;;3.70;0.10;;;;;;;28.30;38.25;99979.20;1639554;85;21067;-86
2021/06/21 04:49:25;;;;;;;2.12;0.10;;;;;;;28.54;38.24;100044.64;1628088;86;21115;-96
2021/06/21 04:51:52;;;;;;;0.72;0.10;;;;;;;28.28;38.89;100039.00;1646857;85;21075;-92
2021/06/21 04:54:20;;;;;;;4.30;0.53;;;;;;;28.22;39.20;100043.00;1637889;85;21118;-87
2021/06/21 04:56:47;;;;;;;1.10;0.20;;;;;;;28.28;39.58;100034.09;1640445;86;21110;-88
2021/06/21 04:59:14;;;;;;;0.80;0.10;;;;;;;28.39;39.12;100036.80;1663057;84;21019;-88
2021/06/21 05:01:40;;;;;;;3.20;0.20;;;;;;;28.57;38.51;100038.27;1654718;83;21037;-88
2021/06/21 05:04:08;;;;;;;1.00;0.20;;;;;;;28.56;38.68;100035.27;1651375;83;20987;-88
2021/06/21 05:06:36;;;;;;;4.08;0.13;;;;;;;28.53;38.76;100042.21;1659817;84;21470;-89
2021/06/21 05:09:09;;;;;;;1.20;0.10;;;;;;;28.61;38.54;100040.63;1663256;84;21051;-88
2021/06/21 05:11:36;;;;;;;6.12;0.20;;;;;;;28.66;38.58;100050.09;1665473;83;21016;-87
2021/06/21 05:14:04;;;;;;;1.45;0.20;;;;;;;28.49;38.63;100043.37;1652665;85;21116;-82
2021/06/21 05:16:30;;;;;;;3.25;0.20;;;;;;;28.23;39.71;100048.72;1638569;85;21037;-89
2021/06/21 05:18:59;;;;;;;0.70;0.10;;;;;;;28.27;39.42;100046.95;1622284;85;21029;-89
2021/06/21 05:21:26;;;;;;;4.80;0.25;;;;;;;28.37;39.78;100035.48;1626836;85;21105;-88
2021/06/21 05:23:52;;;;;;;1.65;0.10;;;;;;;28.26;40.01;100032.23;1644566;85;21142;-89
2021/06/21 05:26:21;;;;;;;0.55;0.13;;;;;;;28.32;39.95;100037.24;1650246;84;21062;-88
2021/06/21 05:28:47;;;;;;;4.05;0.20;;;;;;;28.49;39.64;100035.14;1655401;85;21238;-81
2021/06/21 05:31:13;;;;;;;3.10;0.10;;;;;;;28.54;40.07;100032.30;1661100;85;21034;-81
2021/06/21 05:33:42;;;;;;;2.17;0.10;;;;;;;28.56;39.41;100029.79;1653228;85;21584;-81
2021/06/21 05:36:11;;;;;;;1.40;0.10;;;;;;;28.70;39.15;100038.16;1653422;85;21619;-82
2021/06/21 05:38:38;;;;;;;3.62;0.10;;;;;;;28.85;39.05;100034.17;1634598;84;21221;-82
2021/06/21 05:41:04;;;;;;;4.05;0.40;;;;;;;29.09;38.76;100031.00;1638962;85;21074;-81
2021/06/21 05:43:31;;;;;;;0.40;0.20;;;;;;;29.39;38.53;100035.35;1646444;84;21762;-80
2021/06/21 05:45:57;;;;;;;1.02;0.15;;;;;;;29.53;37.38;100042.05;1613884;86;21112;-81
2021/06/21 05:48:24;;;;;;;3.30;0.35;;;;;;;29.47;37.29;100041.40;1641183;85;21047;-82
2021/06/21 05:50:51;;;;;;;1.45;0.20;;;;;;;29.37;37.74;100043.67;1647593;85;21151;-81
2021/06/21 05:53:21;;;;;;;1.40;0.10;;;;;;;29.24;37.82;100035.83;1628061;86;21172;-86
2021/06/21 05:55:49;;;;;;;1.07;0.20;;;;;;;29.12;38.15;100035.03;1575928;87;21294;-82
2021/06/21 05:58:15;;;;;;;1.15;0.10;;;;;;;29.00;38.44;100035.66;1623565;86;21560;-83
2021/06/21 06:00:41;;;;;;;3.05;0.10;;;;;;;28.97;38.45;100036.86;1632360;85;21047;-83
2021/06/21 06:03:07;;;;;;;1.35;0.20;;;;;;;28.93;38.65;100038.06;1660780;83;21115;-91
2021/06/21 06:05:35;;;;;;;1.60;0.10;;;;;;;28.86;39.68;100031.69;1649974;86;21046;-94
2021/06/21 06:10:51;;;;;;;3.33;0.20;;;;;;;28.95;39.17;100025.41;1639728;83;21106;-89
2021/06/21 06:13:20;;;;;;;1.40;0.20;;;;;;;29.00;39.36;100023.31;1650368;84;21099;-93
2021/06/21 06:15:47;;;;;;;3.02;0.33;;;;;;;29.09;39.44;100019.23;1657497;84;21125;-93
2021/06/21 06:18:13;;;;;;;1.98;0.28;;;;;;;29.33;39.23;100021.55;1658089;82;21201;-89
2021/06/21 06:20:42;;;;;;;1.52;0.20;;;;;;;29.53;38.95;100013.22;1686170;83;21069;-78
2021/06/21 06:23:08;;;;;;;2.30;0.60;;;;;;;29.68;38.54;100011.92;1681613;83;21066;-80
2021/06/21 06:25:37;;;;;;;4.87;0.20;;;;;;;29.70;38.07;100009.66;1677998;83;21077;-81
2021/06/21 06:28:10;;;;;;;2.17;0.10;;;;;;;29.63;38.40;100007.41;1675816;84;21110;-85
2021/06/21 06:30:34;;;;;;;1.55;0.10;;;;;;;29.56;38.40;100009.84;1683077;82;21524;-82
2021/06/21 06:33:02;;;;;;;3.65;0.20;;;;;;;29.26;38.64;99988.28;1658101;84;21191;-82
2021/06/21 06:35:29;;;;;;;5.37;0.20;;;;;;;29.50;38.09;100004.27;1678185;83;21060;-83
2021/06/21 06:37:55;;;;;;;0.70;0.17;;;;;;;29.40;38.19;100001.27;1680534;83;21491;-83
2021/06/21 06:40:21;;;;;;;2.10;0.20;;;;;;;29.33;39.09;99998.77;1677974;83;22272;-84
2021/06/21 06:42:49;;;;;;;4.70;0.30;;;;;;;29.34;39.71;99992.16;1678901;83;20963;-85
2021/06/21 06:45:17;;;;;;;1.17;0.10;;;;;;;29.43;38.94;99991.59;1666718;83;21141;-83
2021/06/21 06:47:43;;;;;;;2.58;0.10;;;;;;;29.41;39.20;99991.91;1676854;82;21535;-86
2021/06/21 06:50:14;;;;;;;0.78;0.10;;;;;;;29.40;39.58;99983.99;1675247;84;21541;-81
2021/06/21 06:52:41;;;;;;;1.72;0.10;;;;;;;29.47;39.34;99992.55;1680396;83;21060;-80
2021/06/21 06:57:52;;;;;;;2.67;0.17;;;;;;;29.40;39.85;99979.88;1620723;86;21064;-82
2021/06/21 07:00:19;;;;;;;7.55;0.40;;;;;;;29.54;39.25;99978.35;1596648;87;21104;-84
2021/06/21 07:02:46;;;;;;;1.05;0.20;;;;;;;29.73;38.88;99977.45;1585593;88;21134;-72
2021/06/21 07:05:13;;;;;;;1.42;0.23;;;;;;;29.80;38.45;99978.31;1584230;87;21132;-75
2021/06/21 07:07:40;;;;;;;2.60;0.20;;;;;;;29.74;38.77;99970.02;1601129;86;21274;-73
2021/06/21 07:10:07;;;;;;;2.00;0.10;;;;;;;29.65;38.81;99971.39;1594240;87;21117;-73
2021/06/21 07:12:35;;;;;;;7.20;0.20;;;;;;;29.57;40.06;99967.50;1605348;86;21147;-73
2021/06/21 07:15:03;;;;;;;2.15;0.20;;;;;;;29.58;39.18;99958.14;1604574;86;21104;-74
2021/06/21 07:18:09;;;;;;;1.52;0.35;;;;;;;29.66;39.56;99964.75;1816805;78;23003;-72
2021/06/21 07:20:36;;;;;;;6.05;0.40;;;;;;;29.73;39.11;99960.15;1767554;79;21063;-74
2021/06/21 07:23:02;;;;;;;1.40;0.20;;;;;;;29.83;38.77;99965.31;1757487;80;21030;-73
2021/06/21 07:25:30;;;;;;;2.83;0.50;;;;;;;29.91;38.74;99963.09;1743883;80;21003;-74
2021/06/21 07:27:56;;;;;;;1.80;0.30;;;;;;;30.02;38.18;99964.36;1726419;81;21128;-77
2021/06/21 07:30:23;;;;;;;2.62;0.28;;;;;;;30.01;37.68;99962.77;1743544;81;21472;-73
2021/06/21 07:32:50;;;;;;;5.60;0.23;;;;;;;29.92;38.35;99964.73;1736285;81;21582;-74
2021/06/21 07:35:17;;;;;;;2.67;0.23;;;;;;;29.91;38.28;99969.17;1701018;81;21017;-78
2021/06/21 07:37:43;;;;;;;3.58;0.20;;;;;;;29.94;38.12;99966.58;1692521;83;21204;-77
2021/06/21 07:40:10;;;;;;;3.83;0.10;;;;;;;29.88;38.72;99962.41;1690134;83;21014;-77
2021/06/21 07:42:38;;;;;;;3.62;0.80;;;;;;;29.73;38.72;99964.27;1686152;83;21367;-74
2021/06/21 07:45:07;;;;;;;2.05;0.25;;;;;;;29.50;38.85;99974.07;1687050;83;21049;-74
2021/06/21 07:47:33;;;;;;;1.00;0.37;;;;;;;29.30;39.52;99979.64;1695094;83;21029;-85
2021/06/21 07:50:03;;;;;;;2.12;0.20;;;;;;;29.14;39.31;99982.61;1668481;84;21269;-73
2021/06/21 07:52:29;;;;;;;0.62;0.20;;;;;;;29.03;39.51;99977.99;1697247;83;21189;-76
2021/06/21 07:54:59;;;;;;;2.22;0.28;;;;;;;29.06;39.54;99975.95;1644453;86;21107;-74
2021/06/21 07:57:24;;;;;;;2.80;0.20;;;;;;;29.02;39.68;99981.84;1693338;83;21209;-76
2021/06/21 07:59:50;;;;;;;1.85;0.23;;;;;;;28.97;40.07;99980.63;1700429;83;21131;-82
2021/06/21 08:02:18;;;;;;;1.85;0.20;;;;;;;28.92;40.44;99978.28;1701180;83;21130;-85
2021/06/21 08:04:51;;;;;;;0.62;0.20;;;;;;;28.86;40.47;99974.09;1692224;84;21053;-80
2021/06/21 08:07:17;;;;;;;1.87;0.23;;;;;;;28.79;40.94;99975.11;1674292;84;21042;-83
2021/06/21 08:09:43;;;;;;;4.50;0.40;;;;;;;28.71;41.47;99977.28;1690042;84;21041;-81
2021/06/21 08:12:10;;;;;;;4.42;0.40;;;;;;;28.67;40.78;99970.80;1667458;83;21132;-81
2021/06/21 08:14:38;;;;;;;4.42;0.45;;;;;;;28.71;40.66;99964.95;1636283;86;21114;-82
2021/06/21 08:17:04;;;;;;;2.75;0.28;;;;;;;28.48;40.53;99941.71;1636514;86;21123;-85
2021/06/21 08:19:31;;;;;;;5.25;0.65;;;;;;;28.60;40.73;99967.17;1633883;86;21195;-81
2021/06/21 08:21:58;;;;;;;2.08;0.50;;;;;;;28.52;40.45;99966.59;1630730;86;21003;-82
2021/06/21 08:24:25;;;;;;;0.45;0.23;;;;;;;28.49;40.82;99970.72;1652546;86;20991;-81
2021/06/21 08:26:51;;;;;;;3.67;0.20;;;;;;;28.45;40.72;99971.12;1660322;86;21014;-81
2021/06/21 08:29:17;;;;;;;3.37;0.20;;;;;;;28.46;40.64;99972.75;1654422;86;21123;-83
2021/06/21 08:31:46;;;;;;;2.70;0.30;;;;;;;28.47;40.72;99973.55;1659428;86;21671;-83
2021/06/21 08:34:12;;;;;;;1.05;0.13;;;;;;;28.44;40.64;99955.78;1635227;86;21105;-81
2021/06/21 08:36:40;;;;;;;1.65;0.20;;;;;;;28.33;41.04;99955.83;1645149;85;21030;-84
2021/06/21 08:39:06;;;;;;;3.10;0.30;;;;;;;28.24;41.50;99968.71;1649964;85;20986;-84
2021/06/21 08:41:38;;;;;;;2.75;0.30;;;;;;;28.20;41.44;99959.48;1627414;86;21039;-83
2021/06/21 08:44:05;;;;;;;4.05;0.30;;;;;;;28.23;41.32;99954.18;1656038;85;21117;-82
2021/06/21 08:46:35;;;;;;;3.10;0.28;;;;;;;28.28;41.49;99960.90;1622155;87;21231;-81
2021/06/21 08:49:03;;;;;;;1.75;0.23;;;;;;;28.26;40.64;99958.24;1628140;87;21055;-81
2021/06/21 08:51:31;;;;;;;3.62;0.30;;;;;;;28.20;40.18;99969.07;1627917;86;21488;-84
2021/06/21 08:53:58;;;;;;;0.80;0.30;;;;;;;28.20;40.89;99984.14;1608492;87;21255;-82
2021/06/21 08:56:24;;;;;;;5.97;0.50;;;;;;;28.21;41.55;99969.33;1635895;85;21045;-82
2021/06/21 08:58:50;;;;;;;4.97;0.40;;;;;;;28.12;41.37;99962.43;1664491;85;21127;-83
2021/06/21 09:01:16;;;;;;;2.58;0.40;;;;;;;28.10;41.55;99962.73;1661750;85;21130;-82
2021/06/21 09:03:43;;;;;;;6.70;0.70;;;;;;;28.15;41.39;99970.83;1651689;85;21149;-82
2021/06/21 09:06:20;;;;;;;5.20;0.30;;;;;;;28.11;41.79;99962.20;1632767;85;21074;-85
2021/06/21 09:08:58;;;;;;;0.80;0.30;;;;;;;28.07;41.99;99967.50;1664019;84;21015;-82
2021/06/21 09:11:50;;;;;;;4.03;0.45;;;;;;;28.10;41.72;99966.84;1665327;84;21085;-82
2021/06/21 09:14:29;;;;;;;1.80;0.35;;;;;;;28.14;41.90;99971.97;1614877;87;21050;-83
2021/06/21 09:17:07;;;;;;;3.98;0.30;;;;;;;28.16;42.15;99974.38;1629562;86;21165;-81
2021/06/21 09:20:03;;;;;;;5.15;0.28;;;;;;;28.15;42.29;99970.83;1646389;86;21034;-84
2021/06/21 09:22:54;;;;;;;4.08;0.50;;;;;;;28.17;41.69;99966.98;1620139;86;21094;-82
2021/06/21 09:25:28;;;;;;;3.67;0.60;;;;;;;28.07;42.19;99972.17;1652670;85;21010;-82
2021/06/21 09:28:04;;;;;;;2.60;0.30;;;;;;;27.92;42.33;99974.18;1664731;84;21120;-84
2021/06/21 09:30:32;;;;;;;;;;;;;;;27.94;42.67;99987.57;1719514;82;21548;-83
2021/06/21 09:33:00;;;;;;;3.20;0.68;;;;;;;28.01;43.01;99966.02;1702806;82;20123;-82
2021/06/21 09:35:37;;;;;;;4.95;0.50;;;;;;;28.08;42.98;99972.41;1691876;83;21579;-82
2021/06/21 09:38:14;;;;;;;5.50;0.80;;;;;;;28.14;42.66;99978.82;1689653;83;20967;-85
2021/06/21 09:40:51;;;;;;;5.05;0.47;;;;;;;28.22;42.50;99990.11;1674547;84;21030;-83
2021/06/21 09:43:33;;;;;;;7.87;0.68;;;;;;;28.27;42.16;99978.45;1701645;83;21031;-83
2021/06/21 09:46:18;;;;;;;9.40;0.60;;;;;;;28.30;42.33;99979.77;1692910;80;21083;-80
2021/06/21 09:49:05;;;;;;;;;;;;;;;28.30;42.70;99969.61;1692430;81;21105;-81
2021/06/21 09:51:40;;;;;;;4.28;0.60;;;;;;;28.32;42.11;99987.11;1694187;83;20216;-82
2021/06/21 09:57:16;;;;;;;5.92;0.42;;;;;;;28.33;42.71;99977.75;1555882;90;21154;-81
2021/06/21 09:59:48;;;;;;;10.25;0.40;;;;;;;28.44;42.47;99984.56;1585858;90;21339;-81
2021/06/21 10:02:22;;;;;;;6.90;0.78;;;;;;;28.53;41.93;99982.70;1519703;93;21089;-81
2021/06/21 10:04:49;;;;;;;10.18;0.60;;;;;;;28.55;41.63;99986.50;1555711;92;21113;-83
2021/06/21 10:07:38;;;;;;;4.05;0.35;;;;;;;28.56;41.21;100003.75;1564358;90;21127;-83
2021/06/21 10:10:11;;;;;;;3.70;0.47;;;;;;;28.44;41.66;99987.30;1563233;92;21198;-81
2021/06/21 10:12:41;;;;;;;3.08;0.40;;;;;;;28.35;42.16;99996.09;1638503;85;21015;-82
2021/06/21 10:15:18;;;;;;;9.48;0.70;;;;;;;28.39;42.25;99985.27;1670838;84;21082;-82
2021/06/21 10:17:50;;;;;;;9.63;1.22;;;;;;;28.32;42.31;99968.73;1662470;85;21153;-81
2021/06/21 10:20:16;;;;;;;3.12;0.80;;;;;;;28.54;42.04;99995.29;1674073;84;21122;-83
2021/06/21 10:22:44;;;;;;;7.70;0.60;;;;;;;28.63;42.06;99986.28;1642339;86;21146;-82
2021/06/21 10:25:12;;;;;;;6.83;1.05;;;;;;;28.68;41.96;99988.31;1644445;86;21085;-81
2021/06/21 10:27:45;;;;;;;4.92;0.55;;;;;;;28.69;42.22;99977.59;1635353;86;21129;-83
2021/06/21 10:30:21;;;;;;;5.90;0.70;;;;;;;28.77;42.29;99990.28;1630811;86;21039;-83
2021/06/21 10:32:49;;;;;;;4.70;0.60;;;;;;;28.80;42.52;99980.86;1642419;87;21067;-82
2021/06/21 10:35:17;;;;;;;5.60;0.53;;;;;;;28.79;42.40;99983.34;1626888;87;21062;-82
2021/06/21 10:38:01;;;;;;;4.97;0.70;;;;;;;28.78;41.61;99977.60;1643305;86;20995;-80
2021/06/21 10:40:30;;;;;;;1.87;0.33;;;;;;;28.61;42.23;99983.05;1627408;86;21037;-83
2021/06/21 10:42:56;;;;;;;4.42;0.65;;;;;;;28.47;42.69;99979.83;1642261;86;21457;-82
2021/06/21 10:45:27;;;;;;;3.27;0.50;;;;;;;28.50;42.68;99987.43;1630885;86;21106;-80
2021/06/21 10:48:09;;;;;;;6.05;0.57;;;;;;;28.62;42.47;99979.99;1648139;86;21058;-80
2021/06/21 10:50:51;;;;;;;11.97;0.90;;;;;;;28.66;42.58;99974.11;1609711;87;21040;-82
2021/06/21 10:53:17;;;;;;;3.58;0.70;;;;;;;28.68;43.02;99977.34;1670458;84;21085;-81
2021/06/21 10:55:49;;;;;;;9.10;0.95;;;;;;;28.73;42.58;99977.77;1635307;86;21624;-82
2021/06/21 10:58:24;;;;;;;7.95;1.27;;;;;;;28.78;41.98;99977.60;1682580;84;21481;-82
2021/06/21 11:00:54;;;;;;;6.20;0.90;;;;;;;28.75;41.92;99996.08;1676552;84;21096;-82
2021/06/21 11:03:35;;;;;;;7.47;0.93;;;;;;;28.71;42.00;99980.03;1694244;84;21074;-83
2021/06/21 11:06:22;;;;;;;3.40;0.98;;;;;;;28.73;41.86;99988.73;1617862;87;21707;-82
2021/06/21 11:08:55;;;;;;;5.37;0.80;;;;;;;28.78;41.85;99972.69;1624997;87;21043;-81
2021/06/21 11:11:43;;;;;;;5.08;0.85;;;;;;;28.86;41.82;99980.94;1630315;87;21079;-82
2021/06/21 11:14:16;;;;;;;7.08;1.10;;;;;;;28.93;41.83;99979.91;1600436;87;21134;-81
2021/06/21 11:16:47;;;;;;;4.72;0.60;;;;;;;29.01;41.21;99982.96;1682350;84;21121;-83
2021/06/21 11:19:22;;;;;;;5.70;0.60;;;;;;;28.89;41.82;99981.66;1655195;84;21004;-81
2021/06/21 11:21:56;;;;;;;3.87;1.12;;;;;;;28.77;42.34;99975.20;1677767;84;21050;-82
2021/06/21 11:24:43;;;;;;;6.25;0.75;;;;;;;28.71;42.56;99980.83;1661726;85;20999;-80
2021/06/21 11:27:14;;;;;;;2.87;0.55;;;;;;;28.75;42.48;99989.23;1681122;84;21058;-85
2021/06/21 11:29:47;;;;;;;3.42;0.80;;;;;;;28.86;41.84;99976.03;1672201;84;21477;-82
2021/06/21 11:32:18;;;;;;;9.00;1.07;;;;;;;28.88;42.38;99981.42;1677608;84;21025;-82
2021/06/21 11:34:54;;;;;;;8.60;0.50;;;;;;;28.88;42.67;99971.03;1681812;84;21551;-82
2021/06/21 11:37:40;;;;;;;14.53;1.42;;;;;;;28.89;42.57;99977.54;1657564;85;21682;-82
2021/06/21 11:40:19;;;;;;;5.72;0.57;;;;;;;28.96;42.02;99986.69;1673123;84;21074;-83
2021/06/21 11:43:06;;;;;;;6.90;0.88;;;;;;;29.07;41.33;99985.81;1695085;84;21056;-83
2021/06/21 11:45:57;;;;;;;4.53;0.90;;;;;;;29.16;40.95;99994.07;1653490;85;21106;-82
2021/06/21 11:48:38;;;;;;;5.15;0.90;;;;;;;29.18;41.46;99989.89;1639831;86;21030;-80
2021/06/21 11:51:14;;;;;;;5.15;0.55;;;;;;;29.15;41.61;99990.52;1646354;86;21078;-84
2021/06/21 11:53:48;;;;;;;2.75;0.70;;;;;;;29.09;41.92;99974.75;1680652;84;21043;-84
2021/06/21 11:56:24;;;;;;;8.58;0.70;;;;;;;29.07;42.34;99974.84;1696411;84;21029;-82
2021/06/21 11:58:54;;;;;;;6.37;1.20;;;;;;;29.11;42.37;99974.44;1681802;84;21078;-81